Time;durP1;ratioP1;P1;durP2;ratioP2;P2;SDS_P1;SDS_P2;PMS_P1;PMS_P2;Temp;Humidity;BMP_temperature;BMP_pressure;BME280_temperature;BME280_humidity;BME280_pressure;Samples;Min_cycle;Max_cycle;Signal;HPM_P1;HPM_P2
2023/10/10 00:01:02;;;;;;;4.75;2.72;;;;;;;7.89;72.05;96649.69;5113704;28;20058;-60
2023/10/10 00:03:31;;;;;;;3.78;2.58;;;;;;;7.83;72.03;96642.91;5113771;28;20083;-61
2023/10/10 00:05:59;;;;;;;6.25;2.92;;;;;;;7.80;72.06;96640.38;5113727;28;20047;-61
2023/10/10 00:08:33;;;;;;;8.52;2.80;;;;;;;7.80;71.77;96638.59;5113759;28;20047;-61
2023/10/10 00:11:06;;;;;;;5.13;2.58;;;;;;;7.83;71.71;96627.28;5113893;28;20404;-62
2023/10/10 00:13:42;;;;;;;7.97;2.60;;;;;;;7.80;71.87;96633.41;5113491;28;20044;-62
2023/10/10 00:16:10;;;;;;;9.73;2.40;;;;;;;7.80;71.84;96620.38;5113329;28;20134;-61
2023/10/10 00:18:43;;;;;;;9.00;2.58;;;;;;;7.76;71.82;96625.69;5113532;28;20134;-61
2023/10/10 00:21:20;;;;;;;6.68;2.60;;;;;;;7.72;71.71;96617.13;5113753;28;20055;-61
2023/10/10 00:23:49;;;;;;;7.28;2.38;;;;;;;7.79;71.57;96607.38;5113655;28;20048;-62
2023/10/10 00:26:20;;;;;;;7.13;2.63;;;;;;;7.78;71.67;96623.91;5113513;28;20077;-62
2023/10/10 00:28:54;;;;;;;8.82;3.00;;;;;;;7.73;71.44;96625.81;5113582;28;20052;-62
2023/10/10 00:31:22;;;;;;;7.82;2.83;;;;;;;7.79;71.75;96620.41;5113412;28;20044;-62
2023/10/10 00:33:51;;;;;;;4.95;2.70;;;;;;;7.77;71.65;96623.06;5113335;28;20062;-62
2023/10/10 00:36:22;;;;;;;3.60;2.47;;;;;;;7.75;71.64;96622.25;5113400;28;20055;-61
2023/10/10 00:38:54;;;;;;;11.95;2.47;;;;;;;7.67;72.03;96625.03;5113397;28;20044;-62
2023/10/10 00:41:22;;;;;;;2.90;2.28;;;;;;;7.64;71.73;96624.25;5113385;28;20051;-62
2023/10/10 00:43:50;;;;;;;3.60;2.50;;;;;;;7.67;72.46;96616.38;5113382;28;20493;-61
2023/10/10 00:46:23;;;;;;;4.28;2.60;;;;;;;7.69;72.20;96604.19;5113392;28;20073;-62
2023/10/10 00:48:59;;;;;;;4.72;2.42;;;;;;;7.65;72.13;96612.97;5113407;28;20105;-61
2023/10/10 00:51:29;;;;;;;4.18;2.28;;;;;;;7.73;72.54;96602.38;5113289;28;20048;-60
2023/10/10 00:54:13;;;;;;;4.43;2.83;;;;;;;7.72;72.51;96596.28;5113270;28;20589;-61
2023/10/10 00:56:44;;;;;;;5.78;2.47;;;;;;;7.71;72.66;96590.22;5113680;28;20067;-62
2023/10/10 00:59:10;;;;;;;;;;;;;;;7.75;72.72;96597.94;5117559;28;20066;-62
2023/10/10 01:01:40;;;;;;;2.85;2.13;;;;;;;7.68;72.62;96618.09;5117078;28;19920;-62
2023/10/10 01:04:09;;;;;;;5.30;2.70;;;;;;;7.67;72.61;96616.38;5117146;28;20050;-61
2023/10/10 01:06:38;;;;;;;3.85;2.65;;;;;;;7.58;72.44;96617.47;5117155;28;20201;-61
2023/10/10 01:09:20;;;;;;;5.00;2.45;;;;;;;7.54;73.16;96615.84;5116967;28;20134;-62
2023/10/10 01:11:48;;;;;;;3.80;2.60;;;;;;;7.51;73.61;96610.69;5116911;28;20050;-62
2023/10/10 01:14:18;;;;;;;8.65;2.70;;;;;;;7.56;73.46;96608.84;5116701;28;20047;-61
2023/10/10 01:16:47;;;;;;;5.28;2.80;;;;;;;7.47;73.11;96604.72;5116879;28;20047;-60
2023/10/10 01:19:18;;;;;;;5.15;3.10;;;;;;;7.47;73.02;96602.13;5116567;28;20048;-61
2023/10/10 01:21:57;;;;;;;5.68;2.90;;;;;;;7.62;73.92;96607.84;5116738;28;20043;-62
2023/10/10 01:24:24;;;;;;;4.97;2.92;;;;;;;7.71;74.05;96608.44;5116860;28;20503;-61
2023/10/10 01:26:52;;;;;;;4.70;2.40;;;;;;;7.76;73.52;96597.03;5116713;28;20428;-62
2023/10/10 01:29:25;;;;;;;6.07;2.92;;;;;;;7.79;73.18;96596.97;5116681;28;20138;-62
2023/10/10 01:31:53;;;;;;;5.93;3.22;;;;;;;7.81;73.22;96596.06;5116796;28;20043;-62
2023/10/10 01:34:39;;;;;;;6.25;3.15;;;;;;;7.86;72.79;96602.91;5116611;28;20459;-61
2023/10/10 01:37:14;;;;;;;5.07;3.28;;;;;;;7.82;73.37;96597.75;5116391;28;20492;-61
2023/10/10 01:40:06;;;;;;;7.50;3.20;;;;;;;7.91;73.06;96591.44;5116323;28;20052;-62
2023/10/10 01:42:37;;;;;;;4.05;2.88;;;;;;;7.89;73.43;96610.63;5116407;28;20040;-62
2023/10/10 01:45:07;;;;;;;;;;;;;;;7.95;73.23;96607.88;5116793;28;20104;-62
2023/10/10 01:47:35;;;;;;;4.60;3.00;;;;;;;7.97;73.43;96608.66;5116274;28;19923;-61
2023/10/10 01:50:07;;;;;;;5.57;3.25;;;;;;;8.02;73.40;96613.75;5116276;28;20079;-61
2023/10/10 01:52:37;;;;;;;6.53;2.95;;;;;;;8.02;73.97;96606.81;5116193;28;20051;-62
2023/10/10 01:55:06;;;;;;;8.77;2.72;;;;;;;8.00;73.87;96602.53;5116133;28;20055;-61
2023/10/10 01:57:33;;;;;;;6.53;3.35;;;;;;;8.02;74.41;96600.72;5116095;28;20047;-62
2023/10/10 02:00:07;;;;;;;3.92;2.70;;;;;;;8.04;74.51;96597.19;5116026;28;20048;-62
2023/10/10 02:02:34;;;;;;;5.75;3.38;;;;;;;8.08;74.04;96593.63;5115985;28;20100;-60
2023/10/10 02:05:04;;;;;;;5.45;3.58;;;;;;;8.11;73.82;96589.19;5115918;28;20043;-62
2023/10/10 02:07:32;;;;;;;4.95;3.28;;;;;;;8.14;73.66;96587.38;5115521;28;20074;-61
2023/10/10 02:10:12;;;;;;;8.05;3.22;;;;;;;8.21;73.66;96586.31;5115882;28;20047;-61
2023/10/10 02:12:44;;;;;;;8.17;3.17;;;;;;;8.32;74.05;96592.97;5115851;28;20066;-61
2023/10/10 02:15:15;;;;;;;5.68;3.13;;;;;;;8.40;74.86;96590.16;5115502;28;20333;-62
2023/10/10 02:17:50;;;;;;;10.07;2.72;;;;;;;8.46;74.54;96583.00;5115848;28;20047;-61
2023/10/10 02:20:34;;;;;;;4.57;3.03;;;;;;;8.52;74.45;96584.56;5115495;28;20092;-60
2023/10/10 02:23:09;;;;;;;5.35;3.10;;;;;;;8.59;74.75;96586.16;5115649;28;20047;-61
2023/10/10 02:25:45;;;;;;;5.90;3.20;;;;;;;8.68;74.96;96572.00;5115523;28;20400;-61
2023/10/10 02:28:21;;;;;;;6.55;3.38;;;;;;;8.72;74.46;96568.38;5115517;28;20047;-62
2023/10/10 02:30:52;;;;;;;5.95;3.45;;;;;;;8.80;73.65;96575.97;5115394;28;20048;-62
2023/10/10 02:33:30;;;;;;;7.00;3.03;;;;;;;8.88;73.60;96577.50;5115355;28;20048;-61
2023/10/10 02:35:58;;;;;;;6.53;3.28;;;;;;;8.98;73.43;96571.09;5115457;28;20043;-62
2023/10/10 02:38:31;;;;;;;5.57;3.00;;;;;;;9.01;73.32;96570.13;5115233;28;20555;-62
2023/10/10 02:41:15;;;;;;;4.75;3.05;;;;;;;9.03;72.80;96576.16;5115166;28;20489;-61
2023/10/10 02:43:55;;;;;;;4.55;2.90;;;;;;;9.05;73.00;96582.19;5115245;28;20044;-60
2023/10/10 02:46:33;;;;;;;8.65;3.30;;;;;;;9.06;73.63;96569.09;5115293;28;20569;-61
2023/10/10 02:49:09;;;;;;;7.50;3.35;;;;;;;9.10;73.85;96575.91;5115059;28;20127;-61
2023/10/10 02:51:40;;;;;;;4.80;3.20;;;;;;;9.10;74.39;96567.25;5115009;28;20394;-62
2023/10/10 02:54:32;;;;;;;7.60;3.40;;;;;;;9.07;74.07;96562.13;5114905;28;20047;-61
2023/10/10 02:57:26;;;;;;;6.57;3.20;;;;;;;9.08;73.97;96567.28;5114935;28;20043;-61
2023/10/10 02:59:59;;;;;;;5.47;3.17;;;;;;;9.15;73.83;96574.94;5114573;28;20075;-61
2023/10/10 03:02:31;;;;;;;9.80;2.88;;;;;;;9.17;73.56;96573.97;5114945;28;20047;-61
2023/10/10 03:05:15;;;;;;;3.47;3.03;;;;;;;9.20;73.33;96573.00;5114824;28;20051;-61
2023/10/10 03:07:44;;;;;;;7.28;2.90;;;;;;;9.14;73.42;96566.25;5114727;28;20126;-60
2023/10/10 03:10:22;;;;;;;4.85;3.10;;;;;;;9.15;73.28;96569.72;5114727;28;20381;-61
2023/10/10 03:13:03;;;;;;;4.30;3.35;;;;;;;9.17;73.59;96579.19;5114664;28;20128;-61
2023/10/10 03:15:33;;;;;;;7.13;2.95;;;;;;;9.15;74.05;96583.59;5114389;28;20059;-62
2023/10/10 03:18:19;;;;;;;10.13;3.08;;;;;;;9.12;73.54;96586.28;5114555;28;20086;-61
2023/10/10 03:21:07;;;;;;;6.53;3.17;;;;;;;9.09;72.55;96584.66;5113650;28;20065;-61
2023/10/10 03:23:42;;;;;;;5.70;2.97;;;;;;;9.03;72.56;96591.81;5114468;28;20477;-61
2023/10/10 03:26:18;;;;;;;10.15;3.20;;;;;;;9.02;72.10;96598.78;5114485;28;20047;-62
2023/10/10 03:28:49;;;;;;;8.55;3.13;;;;;;;9.03;72.08;96594.44;5114411;28;20052;-61
2023/10/10 03:31:24;;;;;;;6.30;2.95;;;;;;;9.06;72.23;96599.56;5114430;28;20105;-62
2023/10/10 03:34:10;;;;;;;4.47;3.10;;;;;;;9.01;71.94;96601.44;5114271;28;20043;-61
2023/10/10 03:36:44;;;;;;;6.22;2.70;;;;;;;8.91;72.20;96599.09;5114225;28;20051;-62
2023/10/10 05:23:53;;;;;;;6.03;3.08;;;;;;;11.19;69.21;96642.81;5116999;28;20108;-62
2023/10/10 05:26:20;;;;;;;13.88;3.03;;;;;;;11.49;67.90;96646.00;5116658;28;20055;-61
2023/10/10 05:28:48;;;;;;;8.43;3.13;;;;;;;11.75;67.30;96645.84;5116956;28;20075;-61
2023/10/10 05:31:19;;;;;;;5.68;3.25;;;;;;;12.00;65.20;96650.94;5116670;28;20130;-62
2023/10/10 05:33:48;;;;;;;7.65;2.75;;;;;;;12.21;66.48;96650.97;5116478;28;20466;-62
2023/10/10 05:36:18;;;;;;;13.43;3.40;;;;;;;12.24;65.24;96653.47;5116566;28;20082;-62
2023/10/10 05:38:48;;;;;;;8.07;3.05;;;;;;;12.28;64.81;96661.19;5116599;28;20052;-62
2023/10/10 05:41:19;;;;;;;10.35;3.35;;;;;;;12.27;64.81;96665.56;5116354;28;20083;-62
2023/10/10 05:43:49;;;;;;;17.88;3.60;;;;;;;12.38;64.37;96671.19;5115720;28;20101;-63
2023/10/10 05:46:17;;;;;;;7.60;2.92;;;;;;;12.50;64.63;96661.13;5116416;28;20075;-62
2023/10/10 05:48:46;;;;;;;11.98;3.80;;;;;;;12.55;63.44;96667.00;5116360;28;20044;-62
2023/10/10 05:51:14;;;;;;;10.27;3.03;;;;;;;12.75;63.12;96667.88;5116249;28;20401;-61
2023/10/10 05:53:42;;;;;;;7.57;3.45;;;;;;;13.06;63.15;96668.28;5116194;28;20047;-61
2023/10/10 05:56:16;;;;;;;17.00;3.60;;;;;;;13.43;60.58;96671.81;5116146;28;20461;-61
2023/10/10 05:58:46;;;;;;;5.75;2.88;;;;;;;13.79;58.81;96680.66;5116231;28;20135;-62
2023/10/10 06:01:14;;;;;;;;;;;;;;;14.12;58.20;96674.63;5116548;28;20048;-61
2023/10/10 06:03:42;;;;;;;9.25;3.45;;;;;;;14.36;57.10;96690.09;5116065;28;20273;-62
2023/10/10 06:06:13;;;;;;;6.88;3.40;;;;;;;14.60;55.88;96699.47;5115915;28;20473;-62
2023/10/10 06:08:41;;;;;;;;;;;;;;;14.75;55.54;96698.66;5116388;28;20078;-62
2023/10/10 06:11:09;;;;;;;7.50;2.83;;;;;;;14.88;55.30;96695.41;5115909;28;19924;-62
2023/10/10 06:13:39;;;;;;;4.85;3.03;;;;;;;15.06;55.96;96696.22;5115824;28;20056;-62
2023/10/10 06:16:14;;;;;;;9.57;2.97;;;;;;;15.18;54.99;96693.84;5115679;28;20043;-62
2023/10/10 06:18:44;;;;;;;4.82;2.63;;;;;;;15.31;54.18;96692.25;5115736;28;20132;-62
2023/10/10 06:21:12;;;;;;;8.18;3.50;;;;;;;15.44;53.79;96687.13;5115541;28;20130;-61
2023/10/10 06:23:41;;;;;;;10.48;2.97;;;;;;;15.58;53.54;96693.44;5115635;28;20047;-62
2023/10/10 06:26:09;;;;;;;7.35;3.17;;;;;;;15.66;54.06;96691.22;5115722;28;20122;-61
2023/10/10 06:28:45;;;;;;;7.63;3.17;;;;;;;15.77;53.87;96694.09;5115583;28;20077;-62
2023/10/10 06:31:17;;;;;;;7.70;3.28;;;;;;;15.92;53.38;96696.78;5115525;28;20134;-61
2023/10/10 06:33:44;;;;;;;10.98;3.35;;;;;;;16.07;53.15;96692.44;5115512;28;20039;-62
2023/10/10 06:41:38;;;;;;;7.50;3.15;;;;;;;16.49;53.02;96689.16;5101948;28;20404;-61
2023/10/10 06:44:12;;;;;;;10.70;3.10;;;;;;;16.67;52.67;96680.16;5115217;28;20108;-62
2023/10/10 06:46:41;;;;;;;6.97;3.00;;;;;;;16.88;51.93;96687.69;5115217;28;20470;-62
2023/10/10 06:49:11;;;;;;;7.80;3.30;;;;;;;16.95;51.07;96688.19;5115134;28;20051;-62
2023/10/10 06:51:40;;;;;;;8.50;3.33;;;;;;;17.00;51.24;96693.16;5115098;28;20069;-62
2023/10/10 06:54:09;;;;;;;20.25;3.80;;;;;;;17.01;50.92;96692.25;5114399;28;20122;-62
2023/10/10 06:56:45;;;;;;;4.55;2.70;;;;;;;17.06;52.10;96692.78;5114533;28;20051;-62
2023/10/10 06:59:16;;;;;;;6.75;2.80;;;;;;;17.11;51.12;96703.97;5114875;28;20492;-62
2023/10/10 07:01:46;;;;;;;7.28;3.17;;;;;;;17.12;50.99;96696.88;5114671;28;20052;-62
2023/10/10 07:04:15;;;;;;;12.05;3.80;;;;;;;17.11;51.22;96696.03;5114758;28;20093;-62
2023/10/10 07:06:47;;;;;;;5.88;2.88;;;;;;;17.17;50.86;96700.09;5114797;28;20047;-62
2023/10/10 07:09:28;;;;;;;10.68;3.53;;;;;;;17.16;51.25;96711.63;5114690;28;20386;-62
2023/10/10 07:11:56;;;;;;;8.90;3.22;;;;;;;17.21;51.32;96700.72;5114811;28;20082;-62
2023/10/10 07:14:25;;;;;;;9.07;3.38;;;;;;;17.24;51.22;96697.91;5114534;28;20066;-62
2023/10/10 07:16:56;;;;;;;7.28;3.35;;;;;;;17.23;50.81;96702.34;5114692;28;20130;-61
2023/10/10 07:19:29;;;;;;;10.68;3.95;;;;;;;17.25;51.31;96699.63;5114528;28;20048;-62
2023/10/10 07:21:56;;;;;;;5.85;2.90;;;;;;;17.27;50.89;96714.44;5114551;28;20073;-62
2023/10/10 07:24:28;;;;;;;8.27;3.10;;;;;;;17.34;50.55;96709.59;5114361;28;20047;-61
2023/10/10 07:27:10;;;;;;;11.05;3.85;;;;;;;17.47;51.04;96708.81;5114496;28;20051;-62
2023/10/10 07:32:28;;;;;;;9.90;3.60;;;;;;;17.61;50.36;96715.88;5101139;28;20043;-62
2023/10/10 07:34:55;;;;;;;8.57;3.55;;;;;;;17.62;50.12;96722.88;5114219;28;20040;-62
2023/10/10 07:37:23;;;;;;;7.60;3.40;;;;;;;17.56;49.67;96724.13;5114407;28;20061;-62
2023/10/10 07:39:57;;;;;;;8.80;3.60;;;;;;;17.61;50.02;96723.81;5114145;28;20151;-62
2023/10/10 07:42:29;;;;;;;10.23;4.10;;;;;;;17.65;50.50;96726.19;5114080;28;20051;-62
2023/10/10 07:44:56;;;;;;;5.65;3.83;;;;;;;17.76;49.46;96732.56;5114062;28;20126;-62
2023/10/10 07:47:27;;;;;;;9.88;3.67;;;;;;;17.88;49.40;96723.81;5114133;28;20051;-61
2023/10/10 07:49:54;;;;;;;9.13;3.85;;;;;;;17.92;48.98;96728.00;5114043;28;20135;-62
2023/10/10 07:52:22;;;;;;;11.57;3.55;;;;;;;17.99;48.78;96724.94;5113950;28;20047;-62
2023/10/10 07:54:53;;;;;;;9.10;3.75;;;;;;;17.95;49.15;96737.53;5114031;28;20051;-61
2023/10/10 07:57:26;;;;;;;10.15;3.30;;;;;;;17.90;49.21;96737.81;5113928;28;20506;-63
2023/10/10 07:59:57;;;;;;;8.15;3.70;;;;;;;17.89;49.70;96746.72;5113895;28;20128;-61
2023/10/10 08:02:31;;;;;;;8.27;4.00;;;;;;;17.83;49.21;96743.59;5113686;28;20070;-62
2023/10/10 08:05:01;;;;;;;6.28;3.67;;;;;;;17.69;49.54;96750.63;5113733;28;20044;-62
2023/10/10 08:07:29;;;;;;;8.80;3.45;;;;;;;17.66;49.78;96748.16;5113463;28;20100;-62
2023/10/10 08:12:37;;;;;;;;;;;;;;;17.60;50.30;96748.56;5113689;28;20412;-61
2023/10/10 08:15:19;;;;;;;8.65;3.45;;;;;;;17.65;49.88;96755.28;5113667;28;19967;-62
2023/10/10 08:17:55;;;;;;;6.18;3.35;;;;;;;17.68;50.60;96749.78;5113874;28;20043;-62
2023/10/10 08:21:08;;;;;;;12.38;4.32;;;;;;;17.78;50.47;96749.19;5113767;28;20043;-62
2023/10/10 08:23:25;;;;;;;8.65;3.55;;;;;;;17.84;50.47;96751.44;5113623;28;20047;-62
2023/10/10 08:25:53;;;;;;;9.30;4.65;;;;;;;17.84;49.71;96759.38;5113685;28;20044;-62
2023/10/10 08:28:21;;;;;;;7.95;3.88;;;;;;;17.85;50.05;96757.59;5113613;28;20378;-62
2023/10/10 08:30:49;;;;;;;8.68;3.88;;;;;;;17.83;50.45;96764.75;5113563;28;20040;-62
2023/10/10 08:33:19;;;;;;;10.02;3.80;;;;;;;17.93;50.58;96761.44;5113424;28;20052;-62
2023/10/10 08:35:47;;;;;;;6.38;3.97;;;;;;;18.01;49.91;96754.78;5113483;28;20132;-62
2023/10/10 08:38:19;;;;;;;8.07;3.85;;;;;;;18.04;50.18;96754.59;5113470;28;20047;-62
2023/10/10 08:40:57;;;;;;;11.82;3.67;;;;;;;18.13;50.44;96759.34;5113376;28;20122;-62
2023/10/10 08:43:28;;;;;;;6.82;3.80;;;;;;;18.20;49.99;96762.41;5113460;28;20058;-62
2023/10/10 08:45:58;;;;;;;5.50;3.10;;;;;;;18.13;50.20;96754.03;5113247;28;20097;-62
2023/10/10 08:48:28;;;;;;;7.65;3.92;;;;;;;18.18;50.43;96748.41;5113385;28;20048;-62
2023/10/10 08:51:03;;;;;;;7.40;3.73;;;;;;;18.24;50.55;96763.91;5113421;28;20086;-62
2023/10/10 08:53:38;;;;;;;8.13;3.92;;;;;;;18.30;50.98;96757.34;5113271;28;20315;-62
2023/10/10 08:56:08;;;;;;;8.52;3.67;;;;;;;18.29;50.00;96747.72;5113285;28;20078;-62
2023/10/10 08:58:36;;;;;;;10.80;5.03;;;;;;;18.28;49.95;96762.78;5113309;28;20048;-62
2023/10/10 09:01:09;;;;;;;9.13;3.63;;;;;;;18.24;50.13;96755.97;5113166;28;20100;-62
2023/10/10 09:03:45;;;;;;;12.70;4.53;;;;;;;18.18;50.32;96761.66;5113209;28;20050;-62
2023/10/10 09:06:20;;;;;;;7.68;4.35;;;;;;;18.08;50.91;96757.88;5113193;28;20512;-62
2023/10/10 09:08:50;;;;;;;8.02;3.80;;;;;;;17.98;51.16;96766.44;5113308;28;20051;-62
2023/10/10 09:11:20;;;;;;;7.93;4.38;;;;;;;18.01;50.82;96760.09;5113188;28;20044;-62
2023/10/10 09:13:52;;;;;;;5.85;3.83;;;;;;;18.03;51.41;96769.63;5113038;28;20047;-62
2023/10/10 09:16:40;;;;;;;11.77;4.32;;;;;;;17.99;51.58;96778.72;5113109;28;20051;-62
2023/10/10 09:19:10;;;;;;;6.72;4.28;;;;;;;18.03;52.03;96769.63;5115591;28;20378;-62
2023/10/10 09:21:55;;;;;;;6.07;3.95;;;;;;;17.99;51.97;96772.56;5116767;28;20492;-62
2023/10/10 09:24:29;;;;;;;5.82;3.92;;;;;;;18.05;51.85;96773.03;5116716;28;20079;-62
2023/10/10 09:26:59;;;;;;;8.90;4.18;;;;;;;18.18;51.87;96777.53;5116716;28;20062;-62
2023/10/10 09:29:42;;;;;;;9.82;4.63;;;;;;;18.21;51.48;96772.03;5116730;28;20040;-62
2023/10/10 09:32:13;;;;;;;9.38;4.28;;;;;;;18.30;51.46;96770.59;5116684;28;20048;-62
2023/10/10 09:34:43;;;;;;;5.60;3.67;;;;;;;18.44;51.46;96783.78;5116541;28;20128;-62
2023/10/10 09:37:13;;;;;;;9.10;3.70;;;;;;;18.64;50.92;96778.97;5116620;28;20087;-62
2023/10/10 09:39:43;;;;;;;;;;;;;;;18.86;50.77;96776.63;5117125;28;20048;-63
2023/10/10 09:42:29;;;;;;;6.43;3.80;;;;;;;19.26;49.99;96781.06;5116496;28;19993;-62
2023/10/10 09:47:55;;;;;;;11.57;3.50;;;;;;;20.01;48.09;96762.53;5116679;28;20070;-62
2023/10/10 09:50:45;;;;;;;5.05;3.40;;;;;;;20.30;47.76;96756.91;5116429;28;20054;-62
2023/10/10 09:53:23;;;;;;;7.28;4.15;;;;;;;20.58;47.46;96758.34;5116243;28;20400;-62
2023/10/10 09:55:54;;;;;;;5.20;3.65;;;;;;;20.99;46.38;96754.47;5116272;28;20047;-62
2023/10/10 09:58:28;;;;;;;6.35;3.42;;;;;;;21.08;45.02;96754.59;5116209;28;20044;-62
2023/10/10 10:01:04;;;;;;;7.43;3.38;;;;;;;21.26;44.67;96769.25;5116142;28;20056;-62
2023/10/10 10:03:49;;;;;;;4.95;3.05;;;;;;;21.15;44.93;96752.31;5116213;28;20051;-63
2023/10/10 10:06:37;;;;;;;7.43;3.58;;;;;;;21.20;44.63;96757.28;5116078;28;20074;-62
2023/10/10 10:09:18;;;;;;;8.82;3.33;;;;;;;21.11;44.53;96763.28;5115954;28;20051;-63
2023/10/10 10:12:03;;;;;;;19.05;3.40;;;;;;;20.81;45.22;96755.75;5115939;28;20097;-62
2023/10/10 10:14:46;;;;;;;8.32;3.80;;;;;;;20.71;45.21;96754.75;5115544;28;20078;-63
2023/10/10 10:17:30;;;;;;;6.85;3.20;;;;;;;20.66;45.64;96749.78;5115776;28;20090;-63
2023/10/10 10:20:19;;;;;;;7.32;3.10;;;;;;;20.86;46.14;96750.03;5115766;28;20054;-63
2023/10/10 10:22:53;;;;;;;4.70;3.22;;;;;;;20.93;45.71;96739.84;5115767;28;20484;-63
2023/10/10 10:25:25;;;;;;;5.45;2.88;;;;;;;20.78;44.90;96752.47;5115650;28;20055;-63
2023/10/10 10:28:10;;;;;;;4.03;2.90;;;;;;;20.65;45.29;96737.44;5115567;28;20047;-62
2023/10/10 10:30:51;;;;;;;8.00;3.40;;;;;;;20.47;45.85;96736.19;5115360;28;20143;-62
2023/10/10 10:33:23;;;;;;;5.20;3.13;;;;;;;20.34;46.47;96747.72;5115451;28;20135;-62
2023/10/10 10:36:16;;;;;;;4.93;2.78;;;;;;;20.53;46.85;96736.56;5115604;28;20051;-62
2023/10/10 10:41:51;;;;;;;5.60;2.75;;;;;;;21.02;44.87;96730.28;5108177;28;20043;-62
2023/10/10 10:47:59;;;;;;;8.32;3.00;;;;;;;21.06;43.76;96729.09;5114926;28;20127;-62
2023/10/10 10:50:57;;;;;;;3.83;2.25;;;;;;;21.17;44.13;96723.78;5115116;28;20480;-62
2023/10/10 10:53:35;;;;;;;3.90;2.35;;;;;;;21.40;43.91;96717.63;5115038;28;20044;-63
2023/10/10 11:01:43;;;;;;;18.00;2.67;;;;;;;21.54;43.74;96716.50;5114957;28;20050;-62
2023/10/10 11:04:22;;;;;;;8.20;2.78;;;;;;;21.68;42.10;96707.41;5114839;28;20079;-62
2023/10/10 11:06:50;;;;;;;4.45;2.30;;;;;;;21.73;42.50;96718.53;5114917;28;20139;-62
2023/10/10 11:09:28;;;;;;;6.90;2.75;;;;;;;21.81;42.22;96708.13;5114738;28;20066;-62
2023/10/10 11:12:08;;;;;;;3.45;2.08;;;;;;;21.90;42.57;96711.00;5114664;28;20100;-63
2023/10/10 11:14:44;;;;;;;3.63;2.30;;;;;;;21.91;41.93;96713.53;5114524;28;20047;-62
2023/10/10 11:17:17;;;;;;;4.45;2.22;;;;;;;21.94;41.55;96715.09;5114554;28;20044;-62
2023/10/10 11:19:47;;;;;;;4.40;2.33;;;;;;;22.08;42.22;96711.31;5114650;28;20147;-62
2023/10/10 11:22:38;;;;;;;3.97;1.92;;;;;;;22.32;41.70;96715.59;5114432;28;20056;-63
2023/10/10 11:25:05;;;;;;;6.95;2.10;;;;;;;22.49;40.84;96730.19;5114253;28;20373;-62
2023/10/10 11:27:43;;;;;;;5.40;2.27;;;;;;;22.54;39.82;96719.09;5114393;28;20084;-63
2023/10/10 11:30:12;;;;;;;3.80;1.92;;;;;;;22.12;39.99;96727.91;5114361;28;20059;-62
2023/10/10 11:32:47;;;;;;;3.17;1.80;;;;;;;21.83;41.97;96734.63;5114254;28;20047;-63
2023/10/10 11:35:25;;;;;;;5.15;1.83;;;;;;;21.56;41.22;96735.84;5114395;28;20052;-62
2023/10/10 11:38:06;;;;;;;3.05;1.65;;;;;;;21.26;40.53;96732.00;5114421;28;20051;-62
2023/10/10 11:40:33;;;;;;;3.78;1.63;;;;;;;21.26;40.87;96738.19;5113778;28;20400;-62
2023/10/10 11:43:04;;;;;;;3.10;1.83;;;;;;;21.31;41.01;96738.66;5114129;28;20048;-63
2023/10/10 11:45:39;;;;;;;4.28;1.90;;;;;;;21.34;41.22;96740.22;5114308;28;20484;-63
2023/10/10 11:48:12;;;;;;;4.30;1.67;;;;;;;21.12;40.67;96746.38;5114063;28;20550;-62
2023/10/10 11:50:47;;;;;;;6.18;2.00;;;;;;;20.85;41.52;96727.09;5113972;28;20136;-62
2023/10/10 11:53:19;;;;;;;3.38;2.47;;;;;;;20.62;42.14;96734.19;5113972;28;20051;-62
2023/10/10 11:55:47;;;;;;;3.80;1.85;;;;;;;20.54;42.65;96730.31;5114072;28;20052;-62
2023/10/10 11:58:17;;;;;;;4.22;1.65;;;;;;;20.50;42.26;96733.31;5114064;28;20100;-62
2023/10/10 12:00:46;;;;;;;2.63;2.10;;;;;;;20.41;42.81;96738.34;5113887;28;20404;-62
2023/10/10 12:03:41;;;;;;;3.45;1.95;;;;;;;20.34;42.40;96750.38;5113955;28;20058;-62
2023/10/10 12:06:14;;;;;;;4.70;1.90;;;;;;;20.25;43.49;96741.28;5113980;28;20044;-62
2023/10/10 12:08:44;;;;;;;2.88;1.90;;;;;;;20.28;43.08;96745.53;5113883;28;20046;-62
2023/10/10 12:11:15;;;;;;;5.05;1.88;;;;;;;20.30;43.03;96748.94;5113774;28;20074;-62
2023/10/10 12:13:45;;;;;;;5.63;2.40;;;;;;;20.24;43.09;96750.22;5113767;28;20134;-62
2023/10/10 12:16:12;;;;;;;9.43;2.97;;;;;;;20.26;43.62;96744.81;5113544;28;20511;-62
2023/10/10 12:18:45;;;;;;;6.78;2.17;;;;;;;20.29;42.97;96745.41;5113637;28;20046;-62
2023/10/10 12:21:19;;;;;;;11.02;2.17;;;;;;;20.42;43.08;96749.81;5113785;28;20468;-62
2023/10/10 12:23:47;;;;;;;5.25;1.95;;;;;;;20.50;42.73;96739.44;5113489;28;20130;-62
2023/10/10 12:26:14;;;;;;;3.05;1.70;;;;;;;20.65;42.55;96737.44;5113575;28;20075;-62
2023/10/10 12:28:43;;;;;;;5.20;2.15;;;;;;;20.78;42.28;96739.16;5113539;28;20054;-62
2023/10/10 12:31:16;;;;;;;2.30;1.77;;;;;;;20.73;42.09;96743.97;5113656;28;20047;-62
2023/10/10 12:33:45;;;;;;;2.28;1.90;;;;;;;20.71;43.08;96741.47;5113488;28;20097;-62
2023/10/10 12:36:12;;;;;;;6.57;1.83;;;;;;;20.68;42.21;96749.66;5113425;28;20043;-63
2023/10/10 12:38:40;;;;;;;6.25;1.83;;;;;;;20.49;41.89;96744.88;5113308;28;20096;-62
2023/10/10 12:41:11;;;;;;;6.80;1.95;;;;;;;20.32;42.92;96752.31;5113560;28;20169;-62
2023/10/10 12:43:39;;;;;;;3.92;1.70;;;;;;;20.21;42.54;96750.47;5113411;28;20043;-62
2023/10/10 12:46:09;;;;;;;3.00;1.88;;;;;;;20.07;42.69;96738.19;5113404;28;20048;-62
2023/10/10 12:48:39;;;;;;;2.65;1.85;;;;;;;20.07;43.90;96736.41;5113498;28;20407;-62
2023/10/10 12:51:09;;;;;;;6.43;2.03;;;;;;;20.17;43.47;96731.25;5114698;28;20101;-61
2023/10/10 12:53:39;;;;;;;8.48;2.30;;;;;;;20.17;43.72;96731.25;5118746;28;20044;-63
2023/10/10 12:56:11;;;;;;;3.40;2.30;;;;;;;20.16;44.06;96734.88;5117500;28;20043;-62
2023/10/10 12:58:42;;;;;;;3.72;2.00;;;;;;;20.19;44.13;96739.94;5117204;28;20044;-62
2023/10/10 13:01:22;;;;;;;8.63;2.40;;;;;;;20.39;44.25;96742.06;5117332;28;20051;-62
2023/10/10 13:03:49;;;;;;;3.67;2.17;;;;;;;20.39;43.17;96745.59;5117154;28;20061;-62
2023/10/10 13:06:16;;;;;;;4.30;2.17;;;;;;;20.39;43.14;96739.41;5117073;28;20546;-62
2023/10/10 13:08:50;;;;;;;2.67;1.85;;;;;;;20.35;43.50;96748.59;5117166;28;20043;-62
2023/10/10 13:11:20;;;;;;;2.83;1.90;;;;;;;20.30;43.45;96739.16;5117035;28;20401;-62
2023/10/10 13:13:51;;;;;;;2.90;2.33;;;;;;;20.17;43.80;96746.34;5117226;28;20044;-62
2023/10/10 13:16:24;;;;;;;5.55;2.08;;;;;;;20.19;44.28;96744.41;5116875;28;20288;-62
2023/10/10 13:18:52;;;;;;;3.13;2.00;;;;;;;20.24;44.15;96747.56;5116929;28;20051;-62
2023/10/10 13:21:20;;;;;;;6.43;2.25;;;;;;;20.27;44.57;96754.47;5116879;28;20459;-62
2023/10/10 13:23:48;;;;;;;6.00;1.90;;;;;;;20.29;43.93;96747.25;5116984;28;20092;-62
2023/10/10 13:26:17;;;;;;;4.53;2.20;;;;;;;20.31;43.65;96751.47;5116968;28;20094;-62
2023/10/10 13:28:46;;;;;;;3.35;2.10;;;;;;;20.20;44.33;96749.59;5116626;28;20048;-62
2023/10/10 13:31:14;;;;;;;3.60;2.17;;;;;;;20.20;44.56;96751.44;5116726;28;20062;-62
2023/10/10 13:33:43;;;;;;;6.47;1.95;;;;;;;20.05;44.66;96735.66;5116587;28;20086;-62
2023/10/10 13:36:14;;;;;;;6.03;2.13;;;;;;;19.88;45.18;96751.94;5116570;28;20040;-61
2023/10/10 13:38:47;;;;;;;4.40;2.10;;;;;;;19.83;45.42;96752.25;5116591;28;20506;-62
2023/10/10 13:41:16;;;;;;;5.03;2.40;;;;;;;19.87;45.36;96753.72;5116526;28;20473;-62
2023/10/10 13:43:44;;;;;;;3.45;2.25;;;;;;;19.86;45.87;96757.34;5116452;28;20052;-62
2023/10/10 13:46:13;;;;;;;8.48;2.63;;;;;;;19.85;46.01;96752.16;5116495;28;20074;-62
2023/10/10 13:48:40;;;;;;;2.88;1.83;;;;;;;19.87;45.56;96758.22;5116516;28;20087;-62
2023/10/10 13:51:09;;;;;;;6.47;2.20;;;;;;;19.91;45.62;96755.22;5116317;28;20052;-62
2023/10/10 13:53:39;;;;;;;4.95;2.63;;;;;;;19.94;45.86;96757.66;5116456;28;20051;-62
2023/10/10 13:56:07;;;;;;;4.68;2.10;;;;;;;19.97;45.70;96750.41;5116392;28;20126;-62
2023/10/10 13:58:36;;;;;;;3.03;2.13;;;;;;;19.95;45.77;96748.72;5116418;28;20098;-62
2023/10/10 14:01:18;;;;;;;4.30;2.40;;;;;;;19.96;45.64;96754.91;5115969;28;20135;-63
2023/10/10 14:03:48;;;;;;;4.50;2.03;;;;;;;19.92;45.55;96754.25;5115435;28;20048;-62
2023/10/10 14:06:19;;;;;;;4.60;2.23;;;;;;;19.91;45.85;96747.28;5116108;28;20050;-62
2023/10/10 14:08:47;;;;;;;4.20;2.05;;;;;;;19.91;45.75;96749.91;5116010;28;20083;-62
2023/10/10 14:11:20;;;;;;;5.13;2.10;;;;;;;19.76;46.00;96743.06;5115919;28;20397;-62
2023/10/10 14:13:49;;;;;;;3.85;1.88;;;;;;;19.50;46.74;96725.41;5115992;28;20050;-62